This is the latest recevied weather packets stored in our database for station/object KJ6HT. If no packets are shown the sender has not sent any weather packets the latest 10 day(s).
| Time | Temp. | Humidity | Pressure | Rain* | Wind** | Luminosity | Snow |
|---|---|---|---|---|---|---|---|
| 1777671093 | 26.11° C | 52% | 1011 hPa | 0 mm | - | - | - |
| 1777670154 | 25° C | 56% | 1011.2 hPa | 0 mm | - | - | - |
| 1777669201 | 25° C | 55% | 1011.5 hPa | 0 mm | - | - | - |
| 1777668356 | 24.44° C | 58% | 1011.5 hPa | 0 mm | - | - | - |
| 1777667406 | 23.33° C | 59% | 1011.6 hPa | 0 mm | - | - | - |
| 1777665605 | 21.11° C | 66% | 1012.2 hPa | 0 mm | - | - | - |
| 1777664764 | 21.11° C | 67% | 1012.3 hPa | 0 mm | - | - | - |
| 1777663826 | 20.56° C | 67% | 1012.5 hPa | 0 mm | - | - | - |
| 1777662981 | 20° C | 70% | 1012.8 hPa | 0 mm | - | - | - |
| 1777662043 | 19.44° C | 73% | 1013.1 hPa | 0 mm | - | - | - |
| 1777661191 | 19.44° C | 71% | 1013.3 hPa | 0 mm | - | - | - |
| 1777660233 | 18.89° C | 75% | 1013.6 hPa | 0 mm | - | - | - |
| 1777659388 | 18.33° C | 77% | 1013.8 hPa | 0 mm | - | - | - |
| 1777658441 | 17.22° C | 79% | 1013.8 hPa | 0 mm | - | - | - |
| 1777657588 | 17.22° C | 81% | 1014 hPa | 0 mm | - | - | - |
| 1777656633 | 16.67° C | 82% | 1014 hPa | 0 mm | - | - | - |
| 1777655785 | 16.67° C | 82% | 1014.1 hPa | 0 mm | - | - | - |
| 1777654837 | 16.67° C | 82% | 1014 hPa | 0 mm | - | - | - |
| 1777653991 | 16.67° C | 84% | 1014 hPa | 0 mm | - | - | - |
| 1777653047 | 15.56° C | 85% | 1013.9 hPa | 0 mm | - | - | - |
| 1777652106 | 15.56° C | 85% | 1013.9 hPa | 0 mm | - | - | - |
| 1777651243 | 15.56° C | 86% | 1014 hPa | 0 mm | - | - | - |
| 1777650309 | 15° C | 86% | 1014.2 hPa | 0 mm | - | - | - |
| 1777649460 | 15° C | 87% | 1013.9 hPa | 0 mm | - | - | - |
| 1777648514 | 15° C | 87% | 1013.9 hPa | 0 mm | - | - | - |
* Rain latest hour (hover to see other rain measurements)
** Current wind speed in m/s (hover to see current wind gust speed)